Time;durP1;ratioP1;P1;durP2;ratioP2;P2;SDS_P1;SDS_P2;PMS_P1;PMS_P2;Temp;Humidity;BMP_temperature;BMP_pressure;BME280_temperature;BME280_humidity;BME280_pressure;Samples;Min_cycle;Max_cycle;Signal;HPM_P1;HPM_P2
2022/07/19 00:01:28;;;;;;;5.17;3.30;;;28.60;77.70;;;;;;1907845;75;21133;-73
2022/07/19 00:04:19;;;;;;;7.47;3.45;;;28.60;79.00;;;;;;1886296;75;21105;-73
2022/07/19 00:07:11;;;;;;;4.15;3.50;;;28.60;78.10;;;;;;1888793;75;21067;-73
2022/07/19 00:12:42;;;;;;;6.65;3.47;;;28.60;76.80;;;;;;1940128;72;22257;-73
2022/07/19 00:15:33;;;;;;;8.38;3.30;;;28.70;76.50;;;;;;1900150;75;21067;-74
2022/07/19 00:18:24;;;;;;;5.75;3.77;;;28.70;76.10;;;;;;1896523;75;21166;-74
2022/07/19 00:21:15;;;;;;;6.87;3.42;;;28.70;76.00;;;;;;1896021;75;21121;-74
2022/07/19 00:24:07;;;;;;;5.05;3.05;;;28.70;76.00;;;;;;1911192;75;21048;-73
2022/07/19 00:26:58;;;;;;;5.33;3.37;;;28.70;75.90;;;;;;1911156;75;21107;-74
2022/07/19 00:29:49;;;;;;;3.45;3.15;;;28.70;76.10;;;;;;1913561;75;21052;-73
2022/07/19 00:32:40;;;;;;;7.05;3.87;;;28.60;76.40;;;;;;1898917;75;21131;-73
2022/07/19 00:35:32;;;;;;;7.00;3.52;;;28.60;76.60;;;;;;1910630;75;21606;-73
2022/07/19 00:38:23;;;;;;;4.30;3.20;;;28.50;76.70;;;;;;1885830;75;21113;-74
2022/07/19 00:43:57;;;;;;;6.97;3.35;;;28.50;77.00;;;;;;1941128;72;22181;-73
2022/07/19 00:46:48;;;;;;;5.40;3.25;;;28.50;77.50;;;;;;1909072;75;21128;-73
2022/07/19 00:49:39;;;;;;;3.92;3.47;;;28.10;80.10;;;;;;1906858;75;21153;-73
2022/07/19 00:52:33;;;;;;;6.10;3.30;;;27.90;79.70;;;;;;1884840;75;21123;-74
2022/07/19 00:58:03;;;;;;;5.33;3.37;;;27.70;80.60;;;;;;1928242;72;22284;-73
2022/07/19 01:00:54;;;;;;;4.97;3.30;;;27.70;81.30;;;;;;1906599;75;21059;-73
2022/07/19 01:03:46;;;;;;;5.00;3.27;;;27.80;81.30;;;;;;1902403;75;21055;-73
2022/07/19 01:09:16;;;;;;;5.50;3.40;;;27.90;81.30;;;;;;1939514;72;22142;-73
2022/07/19 01:12:09;;;;;;;6.80;3.62;;;27.90;81.40;;;;;;1917773;75;21160;-73
2022/07/19 01:15:01;;;;;;;4.85;3.08;;;27.90;81.50;;;;;;1898884;75;21096;-73
2022/07/19 01:17:53;;;;;;;4.70;3.35;;;27.90;81.60;;;;;;1905135;75;21157;-73
2022/07/19 01:20:44;;;;;;;4.75;3.40;;;27.90;81.80;;;;;;1892282;74;21166;-73
2022/07/19 01:23:36;;;;;;;8.63;3.42;;;27.90;82.10;;;;;;1884766;75;21506;-73
2022/07/19 01:26:27;;;;;;;4.47;3.52;;;27.80;82.40;;;;;;1900895;75;21084;-73
2022/07/19 01:29:18;;;;;;;6.03;3.50;;;27.70;82.90;;;;;;1913588;75;21160;-73
2022/07/19 01:32:09;;;;;;;5.22;3.67;;;27.60;83.30;;;;;;1884416;76;21534;-73
2022/07/19 01:35:01;;;;;;;6.70;4.00;;;27.60;83.50;;;;;;1897922;75;21157;-73
2022/07/19 01:37:54;;;;;;;5.53;3.45;;;27.60;83.30;;;;;;1884630;75;21162;-73
2022/07/19 01:40:45;;;;;;;4.83;3.52;;;27.50;83.40;;;;;;1888565;75;21112;-73
2022/07/19 01:43:36;;;;;;;5.70;3.70;;;27.60;82.90;;;;;;1884960;75;21101;-73
2022/07/19 01:49:06;;;;;;;5.12;3.92;;;27.50;82.90;;;;;;1934568;72;22243;-73
2022/07/19 01:51:57;;;;;;;5.72;3.83;;;27.50;81.70;;;;;;1893978;75;21133;-73
2022/07/19 01:57:26;;;;;;;7.42;4.33;;;27.40;81.70;;;;;;1959010;72;22305;-73
2022/07/19 02:02:56;;;;;;;9.85;3.72;;;27.30;82.00;;;;;;1952310;72;22127;-73
2022/07/19 02:05:48;;;;;;;6.45;3.87;;;27.20;82.90;;;;;;1907296;75;21099;-73
2022/07/19 02:08:40;;;;;;;5.75;3.72;;;27.20;83.70;;;;;;1909268;75;21072;-73
2022/07/19 02:11:37;;;;;;;6.42;4.03;;;27.20;84.40;;;;;;1884737;75;21071;-74
2022/07/19 02:17:06;;;;;;;6.25;3.83;;;27.20;83.90;;;;;;1934691;72;22189;-73
2022/07/19 02:22:41;;;;;;;5.92;4.00;;;27.10;84.20;;;;;;1930909;72;22273;-73
2022/07/19 02:28:11;;;;;;;5.58;3.60;;;27.10;84.30;;;;;;1964166;72;22252;-73
2022/07/19 02:31:02;;;;;;;4.28;3.77;;;27.10;84.50;;;;;;1930240;73;21164;-73
2022/07/19 02:33:53;;;;;;;6.58;3.55;;;27.10;84.40;;;;;;1940499;73;21059;-73
2022/07/19 02:36:44;;;;;;;6.53;4.00;;;27.10;85.10;;;;;;1932182;73;21164;-73
2022/07/19 02:42:15;;;;;;;10.53;4.00;;;27.00;84.40;;;;;;1950321;72;22139;-73
2022/07/19 02:45:07;;;;;;;8.28;4.30;;;26.90;84.90;;;;;;1890152;74;21105;-73
2022/07/19 02:48:00;;;;;;;7.58;4.20;;;26.80;85.00;;;;;;1886866;75;21125;-73
2022/07/19 02:50:51;;;;;;;6.92;4.00;;;26.80;85.10;;;;;;1905052;75;21514;-73
2022/07/19 02:53:42;;;;;;;6.47;3.92;;;26.80;85.00;;;;;;1905420;75;21534;-74
2022/07/19 02:59:12;;;;;;;7.75;3.92;;;26.80;85.30;;;;;;1970722;72;22115;-73
2022/07/19 03:04:43;;;;;;;9.65;4.20;;;26.90;85.80;;;;;;1959645;72;22256;-73
2022/07/19 03:07:34;;;;;;;6.85;4.12;;;26.80;86.10;;;;;;1945525;73;21094;-73
2022/07/19 03:10:25;;;;;;;8.13;4.47;;;26.80;86.60;;;;;;1939976;73;21118;-73
2022/07/19 03:13:16;;;;;;;7.90;4.17;;;26.80;87.20;;;;;;1917687;75;21593;-73
2022/07/19 03:16:08;;;;;;;5.75;4.05;;;26.70;87.40;;;;;;1935396;73;21839;-73
2022/07/19 03:19:00;;;;;;;8.83;4.40;;;26.70;87.10;;;;;;1941113;73;21540;-73
2022/07/19 03:24:29;;;;;;;6.70;4.10;;;26.60;86.40;;;;;;1963831;72;22263;-73
2022/07/19 03:27:21;;;;;;;7.60;4.15;;;26.60;86.00;;;;;;1937758;73;21089;-73
2022/07/19 03:30:13;;;;;;;9.13;4.33;;;26.60;85.60;;;;;;1917612;74;21321;-73
2022/07/19 03:33:04;;;;;;;5.58;3.62;;;26.60;85.80;;;;;;1922097;73;21051;-73
2022/07/19 03:35:55;;;;;;;9.48;4.05;;;26.50;85.90;;;;;;1917610;73;21502;-73
2022/07/19 03:38:46;;;;;;;7.25;3.95;;;26.60;85.70;;;;;;1915419;73;21179;-73
2022/07/19 03:41:37;;;;;;;9.78;4.17;;;26.50;85.60;;;;;;1917622;75;21054;-73
2022/07/19 03:47:07;;;;;;;8.70;4.22;;;26.40;85.80;;;;;;1950656;72;22144;-73
2022/07/19 03:49:59;;;;;;;10.13;4.37;;;26.40;85.80;;;;;;1910927;75;21205;-72
2022/07/19 03:52:50;;;;;;;5.78;4.10;;;26.40;85.90;;;;;;1895045;75;21126;-73
2022/07/19 03:58:19;;;;;;;8.03;4.12;;;26.30;86.10;;;;;;1941923;72;22169;-73
2022/07/19 04:01:11;;;;;;;9.23;4.17;;;26.30;86.00;;;;;;1916694;75;21125;-73
2022/07/19 04:04:02;;;;;;;7.75;4.12;;;26.20;85.50;;;;;;1863191;76;21117;-73
2022/07/19 04:06:53;;;;;;;6.12;4.00;;;26.30;84.80;;;;;;1912424;74;21091;-73
2022/07/19 04:12:23;;;;;;;6.62;4.12;;;26.10;84.80;;;;;;1933673;72;22324;-73
2022/07/19 04:15:14;;;;;;;8.18;4.17;;;26.00;85.00;;;;;;1903307;74;21670;-73
2022/07/19 04:18:06;;;;;;;7.25;4.22;;;26.00;85.40;;;;;;1900797;75;21129;-73
2022/07/19 04:20:57;;;;;;;6.58;3.98;;;26.00;85.80;;;;;;1915364;74;21498;-73
2022/07/19 04:23:48;;;;;;;6.67;4.28;;;25.90;86.40;;;;;;1916143;74;21063;-73
2022/07/19 04:26:39;;;;;;;7.08;3.92;;;25.90;87.10;;;;;;1899036;75;21062;-74
2022/07/19 04:34:51;;;;;;;6.72;4.35;;;25.90;88.60;;;;;;1947652;72;22181;-73
2022/07/19 04:37:42;;;;;;;6.15;4.15;;;25.90;89.20;;;;;;1923671;74;21079;-73
2022/07/19 04:43:11;;;;;;;9.53;4.80;;;25.90;89.90;;;;;;1963289;72;22145;-73
2022/07/19 04:46:03;;;;;;;9.00;4.78;;;25.90;90.00;;;;;;1920305;73;21226;-74
2022/07/19 04:48:54;;;;;;;11.57;4.53;;;26.00;90.00;;;;;;1924632;73;21154;-74
2022/07/19 04:51:45;;;;;;;10.48;5.05;;;26.00;90.10;;;;;;1919078;73;21046;-74
2022/07/19 04:57:14;;;;;;;12.00;4.72;;;26.00;90.60;;;;;;1923718;72;22293;-73
2022/07/19 05:02:45;;;;;;;12.05;4.72;;;26.00;90.40;;;;;;1951594;72;22166;-73
2022/07/19 05:05:36;;;;;;;10.32;4.65;;;25.90;90.40;;;;;;1900814;73;21106;-73
2022/07/19 05:08:27;;;;;;;11.55;4.37;;;25.90;90.40;;;;;;1884739;75;21063;-73
2022/07/19 05:11:19;;;;;;;12.35;4.35;;;26.00;90.20;;;;;;1897459;75;21058;-73
2022/07/19 05:14:10;;;;;;;11.83;4.42;;;25.90;90.10;;;;;;1894551;70;21617;-70
2022/07/19 05:17:01;;;;;;;10.28;4.72;;;25.90;90.20;;;;;;1981396;71;21166;-71
2022/07/19 05:19:53;;;;;;;8.50;4.30;;;25.90;90.20;;;;;;1984210;71;21049;-70
2022/07/19 05:22:44;;;;;;;7.97;3.70;;;25.90;90.10;;;;;;1985695;71;21053;-70
2022/07/19 05:25:37;;;;;;;9.20;4.58;;;25.90;90.10;;;;;;1966711;72;21645;-72
2022/07/19 05:28:28;;;;;;;9.23;4.62;;;25.90;90.10;;;;;;1977493;72;21054;-73
2022/07/19 05:31:21;;;;;;;6.80;4.25;;;25.90;90.00;;;;;;1969457;72;21120;-73
2022/07/19 05:34:12;;;;;;;10.48;4.37;;;26.00;89.80;;;;;;1952677;72;21124;-73
2022/07/19 05:37:04;;;;;;;11.18;4.53;;;26.10;89.70;;;;;;1956146;72;21081;-73
2022/07/19 05:39:55;;;;;;;8.90;4.58;;;26.10;89.70;;;;;;1961486;72;21039;-73
2022/07/19 05:45:25;;;;;;;12.13;4.78;;;26.10;89.40;;;;;;1933786;72;22115;-72
2022/07/19 05:48:16;;;;;;;10.70;4.50;;;26.10;89.40;;;;;;1897132;75;21188;-72
2022/07/19 05:51:07;;;;;;;7.28;4.62;;;26.10;89.50;;;;;;1907164;75;21510;-71
2022/07/19 05:54:00;;;;;;;8.63;4.60;;;26.10;89.40;;;;;;1903067;75;21083;-72
2022/07/19 05:56:51;;;;;;;6.78;4.58;;;26.20;89.40;;;;;;1906913;75;21133;-72
2022/07/19 05:59:42;;;;;;;7.67;4.78;;;26.20;89.30;;;;;;1884603;75;21154;-72
2022/07/19 06:02:33;;;;;;;8.20;4.85;;;26.20;89.30;;;;;;1894616;75;21570;-72
2022/07/19 06:05:24;;;;;;;14.03;4.90;;;26.20;89.20;;;;;;1889072;75;21055;-72
2022/07/19 06:08:16;;;;;;;12.05;4.80;;;26.20;89.20;;;;;;1898010;73;21163;-72
2022/07/19 06:11:07;;;;;;;11.03;4.70;;;26.20;89.30;;;;;;1918659;73;21051;-72
2022/07/19 06:13:59;;;;;;;7.67;4.65;;;26.20;89.50;;;;;;1884602;75;21090;-72
2022/07/19 06:16:50;;;;;;;13.95;4.92;;;26.20;89.70;;;;;;1893907;75;21122;-83
2022/07/19 06:19:41;;;;;;;17.12;5.35;;;26.20;89.20;;;;;;1929047;73;21161;-82
2022/07/19 06:22:34;;;;;;;9.90;4.95;;;26.30;89.70;;;;;;1899742;75;21282;-81
2022/07/19 06:25:25;;;;;;;8.50;4.60;;;26.40;89.70;;;;;;1897013;75;21149;-81
2022/07/19 06:28:17;;;;;;;9.65;5.03;;;26.40;89.60;;;;;;1893840;73;21055;-80
2022/07/19 06:31:09;;;;;;;9.43;4.95;;;26.50;89.40;;;;;;1901540;75;21573;-81
2022/07/19 06:34:01;;;;;;;9.10;4.80;;;26.50;89.20;;;;;;1900009;75;21067;-81
2022/07/19 06:36:52;;;;;;;15.03;4.62;;;26.60;89.00;;;;;;1905647;75;21054;-81
2022/07/19 06:42:22;;;;;;;8.10;5.12;;;26.70;88.90;;;;;;1919745;72;22240;-81
2022/07/19 06:45:13;;;;;;;10.75;5.00;;;26.80;88.80;;;;;;1897766;74;21112;-81
2022/07/19 06:48:06;;;;;;;10.48;4.97;;;26.90;88.50;;;;;;1887119;73;21067;-82
2022/07/19 06:53:36;;;;;;;10.70;4.78;;;27.10;88.30;;;;;;1951421;72;22278;-81
2022/07/19 06:56:28;;;;;;;12.60;6.15;;;27.10;88.30;;;;;;1903318;75;21063;-81
2022/07/19 06:59:19;;;;;;;11.97;4.92;;;27.30;88.20;;;;;;1910635;74;21123;-82
2022/07/19 07:02:10;;;;;;;12.58;4.85;;;27.30;88.20;;;;;;1890009;75;21107;-82
2022/07/19 07:07:41;;;;;;;11.43;4.80;;;27.50;88.00;;;;;;1948399;72;22653;-82
2022/07/19 07:10:32;;;;;;;11.85;4.83;;;27.60;87.80;;;;;;1930002;73;21156;-81
2022/07/19 07:13:23;;;;;;;9.20;5.05;;;27.60;87.40;;;;;;1927377;73;21055;-82
2022/07/19 07:18:54;;;;;;;10.00;5.70;;;27.90;86.80;;;;;;1913002;72;22599;-82
2022/07/19 07:21:46;;;;;;;8.85;4.90;;;28.00;86.40;;;;;;1895536;73;21112;-82
2022/07/19 07:24:38;;;;;;;8.20;4.72;;;28.00;85.40;;;;;;1891087;75;21105;-81
2022/07/19 07:27:29;;;;;;;7.78;4.87;;;28.00;85.20;;;;;;1904654;75;21506;-82
2022/07/19 07:30:21;;;;;;;9.18;4.35;;;28.10;84.90;;;;;;1886406;75;21545;-82
2022/07/19 07:33:12;;;;;;;10.88;5.05;;;28.20;84.50;;;;;;1893762;75;21165;-83
2022/07/19 07:36:04;;;;;;;9.53;5.05;;;28.30;83.70;;;;;;1896373;73;21531;-82
2022/07/19 07:38:55;;;;;;;11.55;5.05;;;28.40;83.00;;;;;;1918510;74;21124;-82
2022/07/19 07:41:47;;;;;;;11.25;5.25;;;28.50;82.80;;;;;;1913028;74;21052;-82
2022/07/19 07:44:40;;;;;;;9.15;5.17;;;28.60;82.30;;;;;;1914297;75;21062;-82
2022/07/19 07:47:31;;;;;;;10.82;4.67;;;28.70;82.00;;;;;;1909746;75;21114;-82
2022/07/19 07:53:02;;;;;;;8.58;4.62;;;28.80;81.70;;;;;;1933230;72;22269;-81
2022/07/19 07:55:53;;;;;;;11.28;5.20;;;28.90;81.70;;;;;;1897116;75;21485;-82
2022/07/19 07:58:44;;;;;;;10.28;4.58;;;29.00;81.60;;;;;;1891473;75;21081;-81
2022/07/19 08:01:37;;;;;;;5.75;4.62;;;29.00;81.10;;;;;;1905375;75;21117;-81
2022/07/19 08:04:30;;;;;;;9.10;4.70;;;29.00;81.00;;;;;;1904496;75;21167;-81
2022/07/19 08:07:21;;;;;;;8.63;5.20;;;29.10;80.90;;;;;;1907734;75;21079;-81
2022/07/19 08:10:14;;;;;;;8.83;4.80;;;29.10;82.30;;;;;;1906298;73;21635;-81
2022/07/19 08:13:05;;;;;;;8.68;4.72;;;29.30;82.20;;;;;;1893449;75;21121;-81
2022/07/19 08:15:58;;;;;;;10.25;4.47;;;29.40;81.60;;;;;;1896111;75;21191;-81
2022/07/19 08:18:49;;;;;;;7.17;4.60;;;29.50;80.70;;;;;;1887234;75;21886;-81
2022/07/19 08:24:20;;;;;;;9.10;4.50;;;29.70;79.70;;;;;;1936547;72;23383;-81
2022/07/19 08:27:12;;;;;;;10.38;5.05;;;29.80;80.00;;;;;;1910122;74;21064;-81
2022/07/19 08:30:06;;;;;;;12.07;4.78;;;29.90;80.70;;;;;;1915999;74;21106;-81
2022/07/19 08:33:00;;;;;;;10.70;4.60;;;30.00;79.50;;;;;;1901917;75;21104;-81
2022/07/19 08:35:52;;;;;;;11.80;5.10;;;30.10;79.60;;;;;;1895373;75;21058;-81
2022/07/19 08:38:46;;;;;;;7.00;5.03;;;30.20;79.00;;;;;;1905935;74;21125;-81
2022/07/19 08:41:38;;;;;;;9.68;4.83;;;30.30;78.70;;;;;;1904448;74;21506;-82
2022/07/19 08:44:31;;;;;;;9.98;4.95;;;30.40;78.20;;;;;;1910287;75;21099;-81
2022/07/19 08:47:22;;;;;;;7.75;5.17;;;30.50;78.00;;;;;;1897361;75;21176;-82
2022/07/19 08:50:14;;;;;;;8.05;4.55;;;30.70;77.60;;;;;;1902982;75;21134;-81
2022/07/19 08:53:05;;;;;;;9.35;4.67;;;30.70;77.30;;;;;;1912131;74;21167;-82
2022/07/19 08:55:56;;;;;;;7.00;4.70;;;30.90;76.70;;;;;;1910092;74;21162;-82
2022/07/19 08:58:49;;;;;;;10.93;4.83;;;31.00;76.00;;;;;;1908809;74;21080;-82
2022/07/19 09:01:41;;;;;;;8.35;4.97;;;31.10;76.10;;;;;;1915792;74;21061;-82
2022/07/19 09:04:33;;;;;;;11.85;6.05;;;31.20;76.10;;;;;;1907197;74;21734;-82
2022/07/19 09:07:24;;;;;;;12.00;5.58;;;31.30;76.60;;;;;;1911136;74;21114;-81
2022/07/19 09:10:22;;;;;;;10.13;5.17;;;31.40;76.50;;;;;;1919451;74;21107;-81
2022/07/19 09:13:15;;;;;;;9.63;5.08;;;31.50;76.20;;;;;;1906503;74;21096;-82
2022/07/19 09:16:08;;;;;;;11.35;5.08;;;31.60;76.30;;;;;;1910027;74;21167;-82
2022/07/19 09:19:06;;;;;;;10.40;5.65;;;31.70;76.50;;;;;;1915761;74;21443;-81
2022/07/19 09:22:01;;;;;;;7.17;4.97;;;31.70;76.10;;;;;;1916445;74;21127;-81
2022/07/19 09:24:53;;;;;;;9.88;4.92;;;31.80;75.60;;;;;;1913752;74;21171;-81
2022/07/19 09:27:48;;;;;;;9.45;5.37;;;31.80;76.00;;;;;;1896345;75;21085;-81
2022/07/19 09:30:41;;;;;;;7.50;4.78;;;31.90;75.90;;;;;;1903752;75;21187;-81
2022/07/19 09:33:35;;;;;;;10.93;5.12;;;32.00;76.10;;;;;;1901518;75;21155;-81
2022/07/19 09:36:26;;;;;;;11.25;5.55;;;32.20;75.80;;;;;;1909120;75;21561;-82
2022/07/19 09:39:28;;;;;;;10.45;5.80;;;32.20;75.50;;;;;;1887319;74;21185;-82
2022/07/19 09:42:22;;;;;;;11.38;5.70;;;32.30;75.60;;;;;;1887887;75;21104;-82
2022/07/19 09:45:17;;;;;;;12.23;5.60;;;32.40;75.80;;;;;;1906165;75;21118;-82
2022/07/19 09:48:09;;;;;;;10.10;5.60;;;32.40;76.10;;;;;;1883606;75;21176;-81
2022/07/19 09:51:00;;;;;;;10.10;5.65;;;32.50;76.20;;;;;;1904285;75;21545;-82
2022/07/19 09:53:52;;;;;;;9.35;6.37;;;32.50;76.30;;;;;;1884493;75;21106;-82
2022/07/19 09:56:45;;;;;;;10.90;6.17;;;32.60;75.90;;;;;;1894702;75;21165;-82
2022/07/19 09:59:38;;;;;;;7.03;5.92;;;32.60;75.60;;;;;;1913724;74;21087;-82
2022/07/19 10:02:32;;;;;;;11.08;6.28;;;32.70;76.00;;;;;;1875102;75;21243;-82
2022/07/19 10:05:24;;;;;;;6.70;5.80;;;32.70;75.90;;;;;;1887069;75;21128;-82
2022/07/19 10:08:16;;;;;;;6.97;6.25;;;32.70;75.90;;;;;;1892474;74;21155;-82
2022/07/19 10:11:08;;;;;;;8.20;6.25;;;32.80;76.30;;;;;;1903143;74;21077;-82
2022/07/19 10:14:01;;;;;;;10.08;6.45;;;32.80;77.00;;;;;;1895479;75;21115;-82
2022/07/19 10:17:17;;;;;;;8.65;6.55;;;32.70;77.00;;;;;;1891174;75;21141;-82
2022/07/19 10:20:10;;;;;;;7.65;6.55;;;32.70;77.90;;;;;;1899239;75;21167;-81
2022/07/19 10:23:03;;;;;;;7.83;7.03;;;32.90;77.90;;;;;;1893819;75;21091;-81
2022/07/19 10:25:54;;;;;;;10.98;6.62;;;33.00;78.00;;;;;;1913683;74;21196;-82
2022/07/19 10:28:46;;;;;;;8.70;6.83;;;33.00;78.00;;;;;;1918189;75;21144;-81
2022/07/19 10:31:40;;;;;;;9.33;7.60;;;33.10;78.20;;;;;;1907990;75;21200;-81
2022/07/19 10:34:31;;;;;;;7.75;7.05;;;33.10;78.80;;;;;;1899473;75;21622;-80
2022/07/19 10:37:41;;;;;;;8.73;6.90;;;33.20;78.00;;;;;;1906545;74;21106;-81
2022/07/19 10:40:41;;;;;;;10.15;6.80;;;33.30;78.60;;;;;;1922076;74;21221;-82
2022/07/19 10:43:32;;;;;;;9.35;7.53;;;33.40;78.60;;;;;;1917041;74;21298;-82
2022/07/19 10:46:31;;;;;;;9.38;7.55;;;33.50;78.10;;;;;;1915143;74;21116;-82
2022/07/19 10:49:45;;;;;;;8.80;6.80;;;33.50;78.00;;;;;;1912898;75;21139;-81
2022/07/19 10:52:39;;;;;;;8.05;7.25;;;33.60;78.00;;;;;;1903289;75;21182;-82
2022/07/19 10:55:31;;;;;;;8.78;7.42;;;33.80;78.20;;;;;;1894617;75;21675;-82
2022/07/19 10:58:22;;;;;;;8.48;7.37;;;33.90;78.20;;;;;;1910755;74;21126;-82
2022/07/19 11:01:19;;;;;;;8.08;7.15;;;34.00;78.00;;;;;;1904748;75;21439;-81
2022/07/19 11:07:16;;;;;;;8.25;7.45;;;34.20;79.20;;;;;;1934381;72;22179;-82
2022/07/19 11:10:08;;;;;;;8.53;7.33;;;34.10;78.90;;;;;;1882876;74;21196;-81
2022/07/19 11:13:00;;;;;;;8.58;7.55;;;34.10;79.80;;;;;;1884317;74;21564;-81
2022/07/19 11:15:57;;;;;;;8.88;7.72;;;34.30;79.70;;;;;;1865676;76;21136;-81
2022/07/19 11:18:48;;;;;;;7.95;7.22;;;34.50;77.90;;;;;;1894403;75;21059;-81
2022/07/19 11:21:41;;;;;;;10.58;7.53;;;34.60;78.00;;;;;;1903469;75;21132;-82
2022/07/19 11:24:34;;;;;;;8.50;7.62;;;34.60;78.30;;;;;;1901582;75;21110;-82
2022/07/19 11:27:26;;;;;;;8.53;7.50;;;34.60;78.10;;;;;;1897053;75;21140;-82
2022/07/19 11:30:17;;;;;;;8.05;7.37;;;34.80;77.90;;;;;;1908378;74;21121;-82
2022/07/19 11:33:08;;;;;;;8.68;7.85;;;34.90;77.40;;;;;;1906086;74;21087;-81
2022/07/19 11:36:02;;;;;;;9.23;7.08;;;34.90;78.10;;;;;;1897629;75;21756;-82
2022/07/19 11:38:55;;;;;;;8.05;6.97;;;35.00;77.10;;;;;;1891835;74;21113;-82
2022/07/19 11:41:46;;;;;;;8.00;7.20;;;34.90;77.50;;;;;;1915684;74;21183;-82
2022/07/19 11:44:40;;;;;;;7.72;7.03;;;35.10;77.60;;;;;;1887778;75;21697;-82
2022/07/19 11:47:35;;;;;;;7.58;6.78;;;35.10;77.40;;;;;;1884015;76;21063;-81
2022/07/19 11:50:28;;;;;;;8.33;7.53;;;35.30;77.20;;;;;;1896204;74;21098;-82
2022/07/19 11:53:21;;;;;;;9.75;7.20;;;35.30;76.50;;;;;;1882573;76;21615;-81
2022/07/19 11:56:22;;;;;;;8.18;7.03;;;35.40;76.70;;;;;;1904127;74;21107;-82
2022/07/19 11:59:14;;;;;;;8.33;7.53;;;35.40;77.00;;;;;;1894269;75;21543;-81
2022/07/19 12:02:06;;;;;;;8.40;7.22;;;35.60;76.80;;;;;;1900005;75;21125;-82
2022/07/19 12:04:57;;;;;;;8.20;7.40;;;35.50;76.50;;;;;;1890669;75;21813;-81
2022/07/19 12:07:50;;;;;;;8.33;7.35;;;35.60;76.30;;;;;;1889631;75;21208;-81
2022/07/19 12:10:44;;;;;;;9.35;7.20;;;35.60;77.70;;;;;;1859347;76;21158;-81
2022/07/19 12:13:37;;;;;;;9.33;7.72;;;35.40;78.10;;;;;;1898054;75;21120;-82
2022/07/19 12:16:31;;;;;;;8.10;7.40;;;35.60;78.00;;;;;;1921226;75;21138;-82
2022/07/19 12:19:23;;;;;;;8.33;7.40;;;35.60;77.40;;;;;;1846847;77;21071;-82
2022/07/19 12:22:33;;;;;;;8.13;7.00;;;35.70;76.90;;;;;;1895028;75;21115;-82
2022/07/19 12:25:38;;;;;;;8.75;7.95;;;35.80;75.20;;;;;;1893086;75;21147;-82
2022/07/19 12:28:29;;;;;;;8.20;7.22;;;35.90;77.70;;;;;;1883283;74;21243;-82
2022/07/19 12:31:21;;;;;;;8.50;7.80;;;35.80;76.40;;;;;;1887174;74;21362;-82
2022/07/19 12:34:13;;;;;;;8.48;7.78;;;35.80;77.20;;;;;;1883483;76;21133;-83
2022/07/19 12:37:19;;;;;;;9.23;7.78;;;35.80;77.20;;;;;;1884874;75;21257;-82
2022/07/19 12:40:13;;;;;;;8.43;7.72;;;35.90;77.90;;;;;;1889831;75;21124;-83
2022/07/19 12:43:12;;;;;;;8.38;7.28;;;36.00;78.20;;;;;;1891696;75;21062;-82
2022/07/19 12:46:01;;;;;;;;;;;36.00;77.40;;;;;;1895940;76;21098;-82
2022/07/19 12:48:52;;;;;;;8.30;7.55;;;36.10;76.70;;;;;;1893323;76;20122;-82
2022/07/19 12:51:44;;;;;;;8.73;6.87;;;36.20;77.20;;;;;;1848157;77;21121;-82
2022/07/19 12:54:35;;;;;;;8.08;7.37;;;36.20;77.00;;;;;;1883605;76;21485;-82
2022/07/19 12:57:29;;;;;;;7.62;6.87;;;36.20;76.40;;;;;;1892864;75;21110;-82
2022/07/19 13:00:22;;;;;;;7.87;7.08;;;36.20;77.30;;;;;;1884179;76;21110;-82
2022/07/19 13:03:13;;;;;;;7.78;7.08;;;36.40;76.20;;;;;;1889240;75;21173;-82
2022/07/19 13:06:05;;;;;;;7.03;6.50;;;36.10;76.70;;;;;;1895767;74;21070;-82
2022/07/19 13:08:57;;;;;;;7.65;6.90;;;36.00;76.80;;;;;;1898409;74;21078;-82
2022/07/19 13:11:48;;;;;;;7.65;6.65;;;36.10;77.20;;;;;;1884365;76;21176;-84
2022/07/19 13:14:41;;;;;;;7.85;7.10;;;36.20;77.00;;;;;;1886112;75;21145;-81
2022/07/19 13:17:33;;;;;;;7.80;7.10;;;36.20;75.40;;;;;;1892026;75;21070;-81
2022/07/19 13:20:24;;;;;;;9.45;7.25;;;36.30;75.80;;;;;;1916784;75;21172;-82
2022/07/19 13:23:16;;;;;;;8.40;7.10;;;36.20;76.70;;;;;;1899506;75;21515;-82
2022/07/19 13:26:07;;;;;;;7.40;6.80;;;36.10;77.30;;;;;;1896490;75;21050;-82
2022/07/19 13:28:59;;;;;;;7.95;7.20;;;36.10;76.90;;;;;;1885759;74;21075;-82
2022/07/19 13:31:51;;;;;;;8.13;7.17;;;36.10;77.20;;;;;;1887701;74;21102;-82
2022/07/19 13:34:42;;;;;;;9.60;7.97;;;36.20;77.20;;;;;;1902486;75;21121;-82
2022/07/19 13:37:34;;;;;;;7.92;7.15;;;36.20;76.90;;;;;;1883672;75;21596;-82
2022/07/19 13:40:25;;;;;;;8.15;7.35;;;36.00;77.20;;;;;;1910121;74;21134;-82
2022/07/19 13:43:16;;;;;;;7.62;7.03;;;35.90;77.40;;;;;;1869363;76;21106;-82
2022/07/19 13:46:08;;;;;;;7.90;7.10;;;35.80;77.80;;;;;;1903458;75;21062;-82
2022/07/19 13:49:00;;;;;;;8.33;7.15;;;35.90;78.10;;;;;;1884095;76;21159;-82
2022/07/19 13:51:51;;;;;;;8.35;6.80;;;35.80;78.10;;;;;;1916938;74;21058;-82
2022/07/19 13:54:43;;;;;;;7.90;7.10;;;35.90;77.50;;;;;;1902396;74;21710;-82
2022/07/19 13:57:34;;;;;;;7.70;6.90;;;35.80;77.70;;;;;;1904634;75;21066;-82
2022/07/19 14:00:26;;;;;;;7.45;6.75;;;35.80;78.00;;;;;;1901460;75;21174;-81
2022/07/19 14:03:20;;;;;;;8.05;7.45;;;35.70;78.20;;;;;;1885748;75;21204;-82
2022/07/19 14:06:11;;;;;;;9.78;7.40;;;35.50;77.30;;;;;;1886446;75;21145;-82
2022/07/19 14:09:03;;;;;;;8.23;7.42;;;35.40;77.50;;;;;;1876495;76;21155;-82
2022/07/19 14:11:55;;;;;;;7.97;7.20;;;35.40;77.90;;;;;;1821755;78;21084;-82
2022/07/19 14:14:46;;;;;;;14.13;8.28;;;35.30;78.00;;;;;;1805187;79;21104;-82
2022/07/19 14:17:38;;;;;;;8.00;7.28;;;35.30;79.10;;;;;;1853179;76;21079;-82
2022/07/19 14:20:30;;;;;;;12.50;7.92;;;35.30;78.80;;;;;;1811706;78;21205;-84
2022/07/19 14:23:21;;;;;;;10.30;8.30;;;35.10;85.20;;;;;;1850911;77;21131;-84
2022/07/19 14:26:12;;;;;;;12.37;8.30;;;34.30;86.90;;;;;;1837852;78;21123;-84
2022/07/19 14:29:04;;;;;;;11.15;8.28;;;33.70;88.90;;;;;;1811904;78;21100;-83
2022/07/19 14:31:56;;;;;;;11.08;8.30;;;33.30;91.50;;;;;;1834175;77;21093;-83
2022/07/19 14:34:47;;;;;;;10.53;9.23;;;33.00;93.70;;;;;;1871526;76;21100;-83
2022/07/19 14:37:39;;;;;;;10.55;8.18;;;32.30;95.30;;;;;;1806433;79;21469;-83
2022/07/19 14:40:30;;;;;;;9.35;8.58;;;31.90;96.30;;;;;;1831869;78;21529;-83
2022/07/19 14:43:22;;;;;;;10.65;9.58;;;31.50;99.60;;;;;;1843079;76;21130;-82
2022/07/19 14:46:13;;;;;;;9.68;8.90;;;31.40;99.90;;;;;;1847637;77;21071;-82
2022/07/19 14:49:05;;;;;;;12.28;8.90;;;31.40;99.90;;;;;;1886614;75;21084;-81
2022/07/19 14:51:56;;;;;;;10.55;8.53;;;31.60;99.90;;;;;;1882848;75;21063;-82
2022/07/19 14:54:48;;;;;;;9.00;8.30;;;31.80;99.90;;;;;;1878335;75;21052;-81
2022/07/19 14:57:40;;;;;;;10.72;9.73;;;31.90;99.90;;;;;;1898155;75;21096;-81
2022/07/19 15:00:31;;;;;;;10.08;9.15;;;32.10;99.90;;;;;;1899695;75;21165;-81
2022/07/19 15:03:23;;;;;;;9.15;8.35;;;32.30;99.90;;;;;;1895522;75;21051;-82
2022/07/19 15:06:14;;;;;;;13.38;9.50;;;32.60;99.90;;;;;;1892844;74;21509;-82
2022/07/19 15:09:06;;;;;;;10.90;9.73;;;33.00;99.90;;;;;;1880307;75;21134;-81
2022/07/19 15:11:59;;;;;;;9.55;8.63;;;33.20;99.90;;;;;;1895001;74;21181;-81
2022/07/19 15:14:51;;;;;;;8.45;7.78;;;33.30;99.90;;;;;;1899314;75;21553;-81
2022/07/19 15:17:42;;;;;;;8.20;7.60;;;33.80;99.90;;;;;;1904378;75;21269;-82
2022/07/19 15:20:34;;;;;;;8.68;7.97;;;34.40;99.80;;;;;;1896437;74;21547;-82
2022/07/19 15:23:25;;;;;;;8.83;8.00;;;34.60;98.70;;;;;;1916583;75;21110;-83
2022/07/19 15:26:17;;;;;;;9.45;7.70;;;34.80;98.40;;;;;;1897235;74;21565;-82
2022/07/19 15:29:09;;;;;;;8.68;7.97;;;34.70;97.20;;;;;;1914450;75;21051;-82
2022/07/19 15:32:00;;;;;;;8.38;7.50;;;34.70;98.80;;;;;;1894441;75;21157;-82
2022/07/19 15:34:52;;;;;;;7.92;7.33;;;34.60;97.20;;;;;;1896270;74;21108;-82
2022/07/19 15:37:44;;;;;;;11.12;8.58;;;34.70;95.80;;;;;;1899071;75;21098;-83
2022/07/19 15:40:36;;;;;;;12.03;8.70;;;34.90;98.40;;;;;;1903814;74;21169;-82
2022/07/19 15:43:27;;;;;;;8.88;8.08;;;34.90;99.00;;;;;;1895798;74;21148;-83
2022/07/19 15:46:19;;;;;;;8.10;7.30;;;36.00;96.40;;;;;;1884182;74;21174;-82
2022/07/19 15:49:11;;;;;;;10.18;9.00;;;37.10;93.30;;;;;;1883171;74;21117;-83
2022/07/19 15:52:03;;;;;;;9.18;8.30;;;38.10;94.70;;;;;;1901006;75;21137;-83
2022/07/19 15:54:55;;;;;;;8.98;8.08;;;39.20;92.40;;;;;;1887642;75;21066;-83
2022/07/19 15:57:47;;;;;;;6.30;5.80;;;39.70;89.40;;;;;;1906847;75;21581;-83
2022/07/19 16:00:40;;;;;;;11.38;9.28;;;40.30;79.60;;;;;;1889380;75;21118;-83
2022/07/19 16:03:32;;;;;;;9.08;8.35;;;40.60;83.00;;;;;;1894415;74;21583;-83
2022/07/19 16:06:23;;;;;;;7.50;6.85;;;40.90;81.30;;;;;;1883645;75;21534;-83
2022/07/19 16:09:15;;;;;;;6.62;6.03;;;41.00;74.50;;;;;;1905579;75;21253;-83
2022/07/19 16:12:09;;;;;;;6.03;5.58;;;41.30;71.40;;;;;;1883231;75;21133;-82
2022/07/19 16:15:00;;;;;;;5.95;5.47;;;40.90;68.00;;;;;;1883921;76;21631;-84